Terminal Aerodrome Forecast
Issued by NWS

Home | Current Version | Previous Version | Text Only | Print | Product List | Glossary On
Versions: 1 2 3 4 5 6 7 8 9 10 11 12 13 14
000
FTAK31 PANC 292334
TAFAEN
TAF
PAEN 292334Z 3000/3024 21008KT P6SM BKN100
     FM300300 20009KT P6SM VCSH BKN080
     FM300500 19012G18KT P6SM VCSH BKN080
     FM300900 19009KT P6SM -SHRA BKN060
     FM301500 VRB05KT P6SM -SHRA BKN080=

USA.gov is the U.S. government's official web portal to all federal, state and local government web resources and services.